Time;durP1;ratioP1;P1;durP2;ratioP2;P2;SDS_P1;SDS_P2;PMS_P1;PMS_P2;Temp;Humidity;BMP_temperature;BMP_pressure;BME280_temperature;BME280_humidity;BME280_pressure;Samples;Min_cycle;Max_cycle;Signal;HPM_P1;HPM_P2
2023/09/26 00:04:01;;;;;;;3.77;3.20;;;;;;;15.34;47.60;100280.19;10295895;28;20242;-70
2023/09/26 00:09:05;;;;;;;3.10;2.80;;;;;;;15.45;47.17;100282.31;10297607;28;20264;-70
2023/09/26 00:14:07;;;;;;;5.70;3.40;;;;;;;15.76;46.25;100263.88;10294744;28;20218;-69
2023/09/26 00:19:08;;;;;;;4.80;3.80;;;;;;;15.36;46.82;100380.59;10297290;28;20237;-71
2023/09/26 00:24:10;;;;;;;5.57;3.73;;;;;;;13.70;51.15;100334.44;10299150;28;20234;-69
2023/09/26 00:29:12;;;;;;;4.10;3.53;;;;;;;15.73;46.75;100316.41;10298666;28;20236;-69
2023/09/26 00:34:13;;;;;;;4.30;3.60;;;;;;;13.65;50.84;100349.31;10296340;28;20217;-70
2023/09/26 00:39:15;;;;;;;4.40;3.90;;;;;;;13.23;51.07;100422.59;10294413;28;20256;-69
2023/09/26 00:44:17;;;;;;;4.47;3.83;;;;;;;12.59;53.15;100308.50;10293425;28;20238;-69
2023/09/26 00:49:19;;;;;;;4.43;3.80;;;;;;;13.06;52.29;100306.44;10293034;28;20238;-70
2023/09/26 00:54:21;;;;;;;8.23;3.97;;;;;;;12.43;53.44;100341.69;10298368;28;20261;-70
2023/09/26 00:59:24;;;;;;;4.70;4.30;;;;;;;14.81;49.16;100228.81;10294456;28;20773;-69
2023/09/26 01:04:26;;;;;;;7.53;4.77;;;;;;;12.46;53.23;100327.91;10300012;28;20803;-70
2023/09/26 01:09:28;;;;;;;5.03;4.20;;;;;;;13.92;50.58;100236.56;10299662;28;20257;-69
2023/09/26 01:14:31;;;;;;;4.93;4.43;;;;;;;15.70;47.24;100214.28;10298244;28;20230;-70
2023/09/26 01:19:32;;;;;;;4.60;3.73;;;;;;;12.88;52.40;100385.53;10296730;28;20237;-70
2023/09/26 01:24:37;;;;;;;6.53;4.00;;;;;;;13.38;51.39;100383.13;10297672;28;20240;-70
2023/09/26 01:29:39;;;;;;;6.53;4.37;;;;;;;13.27;52.40;100255.41;10298993;28;20736;-71
2023/09/26 01:34:41;;;;;;;5.03;4.30;;;;;;;11.55;54.88;100369.84;10295568;28;20334;-70
2023/09/26 01:39:43;;;;;;;4.67;4.17;;;;;;;11.81;54.72;100329.31;10293267;28;20234;-70
2023/09/26 01:44:44;;;;;;;5.20;4.67;;;;;;;12.13;54.09;100253.13;10292070;28;20646;-70
2023/09/26 01:49:46;;;;;;;6.23;4.80;;;;;;;14.63;49.78;100200.56;10288870;28;20321;-69
2023/09/26 01:54:48;;;;;;;4.37;3.97;;;;;;;12.98;50.39;100400.56;10292487;28;21311;-70
2023/09/26 01:59:50;;;;;;;5.30;4.63;;;;;;;12.91;52.60;100279.59;10292147;28;20307;-69
2023/09/26 02:04:51;;;;;;;4.63;4.17;;;;;;;13.49;50.51;100319.97;10293221;28;20277;-70
2023/09/26 02:09:53;;;;;;;4.33;3.93;;;;;;;11.35;54.33;100420.38;10290900;28;20324;-69
2023/09/26 02:14:55;;;;;;;4.57;4.13;;;;;;;12.88;52.62;100253.13;10290504;28;20313;-68
2023/09/26 02:19:57;;;;;;;6.03;4.70;;;;;;;12.04;53.93;100320.44;10283884;28;20245;-69
2023/09/26 02:24:59;;;;;;;5.47;4.67;;;;;;;12.95;52.49;100220.97;10265625;28;20231;-68
2023/09/26 02:30:00;;;;;;;5.27;4.77;;;;;;;14.44;49.43;100247.88;10263616;28;20612;-68
2023/09/26 02:35:03;;;;;;;4.47;4.07;;;;;;;12.27;50.45;100441.97;10265746;28;20246;-70
2023/09/26 02:40:09;;;;;;;6.10;4.50;;;;;;;11.24;54.36;100379.56;10268313;28;20322;-68
2023/09/26 02:45:13;;;;;;;5.67;5.07;;;;;;;11.68;54.00;100296.94;10285553;28;20327;-71
2023/09/26 02:50:15;;;;;;;5.83;4.93;;;;;;;12.01;53.30;100324.28;10287398;28;20250;-70
2023/09/26 02:55:19;;;;;;;4.67;4.10;;;;;;;13.00;50.44;100281.16;10289036;28;20238;-70
2023/09/26 03:00:21;;;;;;;5.43;4.27;;;;;;;13.64;48.42;100323.44;10283515;28;20329;-70
2023/09/26 03:05:23;;;;;;;6.20;4.07;;;;;;;11.99;51.82;100359.34;10293969;28;20320;-71
2023/09/26 03:10:25;;;;;;;5.17;4.30;;;;;;;12.72;51.43;100289.03;10285819;28;20225;-69
2023/09/26 03:15:26;;;;;;;5.03;4.17;;;;;;;14.25;47.33;100303.28;10293832;28;20706;-70
2023/09/26 03:20:28;;;;;;;5.30;4.00;;;;;;;12.84;49.49;100396.84;10300391;28;20356;-68
2023/09/26 03:25:33;;;;;;;4.93;3.90;;;;;;;11.45;52.20;100437.88;10294853;28;20299;-71
2023/09/26 03:30:34;;;;;;;14.53;5.20;;;;;;;11.81;53.73;100273.84;10295263;28;20713;-69
2023/09/26 03:35:36;;;;;;;6.40;5.03;;;;;;;13.76;49.74;100215.34;10292259;28;20236;-69
2023/09/26 03:40:38;;;;;;;5.93;5.13;;;;;;;14.13;49.18;100208.78;10287446;28;20238;-70
2023/09/26 13:49:14;;;;;;;4.97;2.95;;;;;;;21.99;42.01;100103.44;10367586;28;2059954;-74
2023/09/26 13:54:16;;;;;;;2.95;2.65;;;;;;;21.56;41.68;100158.38;10426830;28;20315;-74
2023/09/26 13:59:18;;;;;;;5.55;3.00;;;;;;;20.63;42.59;100190.44;10437726;28;20247;-74
2023/09/26 14:04:20;;;;;;;3.17;2.78;;;;;;;20.67;42.81;100187.00;10441583;28;20259;-71
2023/09/26 14:09:23;;;;;;;3.28;2.67;;;;;;;22.88;39.70;100085.88;10438576;28;20223;-72
2023/09/26 14:14:25;;;;;;;2.60;2.40;;;;;;;20.49;41.81;100211.66;10411481;28;21689;-72
2023/09/26 14:19:27;;;;;;;3.00;2.58;;;;;;;20.64;41.29;100219.28;10439934;28;21081;-73
2023/09/26 14:24:29;;;;;;;2.75;2.38;;;;;;;22.02;39.91;100143.81;10447771;28;20366;-71
2023/09/26 14:29:47;;;;;;;5.03;2.30;;;;;;;22.65;39.59;100106.09;10443079;28;20630;-71
2023/09/26 14:34:49;;;;;;;3.00;2.40;;;;;;;20.69;40.92;100190.28;10445380;28;20243;-72
2023/09/26 14:39:51;;;;;;;1.92;1.77;;;;;;;21.65;39.49;100137.00;10430443;28;20246;-72
2023/09/26 14:44:53;;;;;;;3.75;2.10;;;;;;;21.60;39.48;100110.53;10424522;28;20322;-71
2023/09/26 14:49:55;;;;;;;1.88;1.77;;;;;;;22.15;38.92;100095.19;10442137;28;20235;-71
2023/09/26 14:55:00;;;;;;;2.53;2.33;;;;;;;21.89;39.90;100169.47;10447504;28;20227;-69
2023/09/26 15:00:03;;;;;;;2.88;2.30;;;;;;;23.12;38.49;100115.56;10450733;28;20297;-71
2023/09/26 15:05:06;;;;;;;3.33;2.10;;;;;;;21.66;38.90;100181.38;10449202;28;20231;-75
2023/09/26 15:10:09;;;;;;;3.20;2.10;;;;;;;22.36;38.63;100110.97;10451766;28;20223;-75
2023/09/26 15:15:11;;;;;;;3.92;2.78;;;;;;;23.34;37.52;100072.56;10436482;28;20227;-74
2023/09/26 15:20:13;;;;;;;2.55;2.25;;;;;;;22.13;39.25;100135.50;10443608;28;20322;-75
2023/09/26 15:25:15;;;;;;;3.35;2.10;;;;;;;22.12;38.58;100180.19;10436324;28;20310;-73
2023/09/26 15:30:17;;;;;;;2.88;2.15;;;;;;;23.41;38.18;100105.91;10430124;28;20243;-74
2023/09/26 15:35:19;;;;;;;2.90;2.05;;;;;;;23.07;38.45;100097.22;10431749;28;20247;-75
2023/09/26 15:40:22;;;;;;;2.40;2.20;;;;;;;23.04;37.65;100141.38;10421659;28;20319;-73
2023/09/26 15:45:24;;;;;;;2.05;1.90;;;;;;;22.80;38.25;100106.25;10440982;28;20276;-74
2023/09/26 15:50:28;;;;;;;3.05;2.03;;;;;;;23.48;37.78;100104.88;10451431;28;20242;-69
2023/09/26 15:55:31;;;;;;;2.58;2.20;;;;;;;24.45;37.00;100049.84;10455994;28;20240;-73
2023/09/26 16:00:34;;;;;;;3.35;2.35;;;;;;;23.25;38.33;100109.66;10453205;28;20289;-71
2023/09/26 16:05:37;;;;;;;2.28;2.05;;;;;;;22.71;38.94;100124.19;10438043;28;20289;-72
2023/09/26 16:10:39;;;;;;;3.20;2.28;;;;;;;23.95;37.02;100080.28;10451776;28;20244;-70
2023/09/26 16:15:42;;;;;;;2.30;2.10;;;;;;;24.03;37.85;100091.81;10434914;28;20228;-72
2023/09/26 16:20:43;;;;;;;3.33;2.53;;;;;;;23.06;40.17;100140.06;10451183;28;20672;-72
2023/09/26 16:25:45;;;;;;;4.20;2.58;;;;;;;22.95;42.53;100034.63;10439259;28;20317;-70
2023/09/26 16:30:49;;;;;;;4.30;2.38;;;;;;;22.86;42.88;100068.94;10421318;28;20239;-71
2023/09/26 16:35:51;;;;;;;2.80;2.38;;;;;;;22.69;42.46;100093.63;10438200;28;20266;-71
2023/09/26 16:40:53;;;;;;;3.80;2.53;;;;;;;23.25;41.85;100044.94;10446357;28;20235;-73
2023/09/26 16:45:55;;;;;;;5.28;3.53;;;;;;;22.56;43.33;100039.50;10453979;28;20240;-71
2023/09/26 16:50:58;;;;;;;3.30;2.30;;;;;;;22.28;43.40;100090.41;10450710;28;22439;-71
2023/09/26 16:56:00;;;;;;;4.90;3.28;;;;;;;23.49;42.54;100017.22;10451347;28;20323;-72
2023/09/26 17:01:11;;;;;;;2.88;2.65;;;;;;;23.05;42.47;100096.63;10454627;28;20235;-72
2023/09/26 17:06:15;;;;;;;2.75;2.55;;;;;;;22.94;42.95;100093.00;10453243;28;20757;-73
2023/09/26 17:11:21;;;;;;;3.85;2.65;;;;;;;21.74;44.27;100119.16;10415219;28;20744;-72
2023/09/26 17:16:23;;;;;;;3.60;2.38;;;;;;;22.86;42.21;100113.41;10434789;28;20455;-73
2023/09/26 17:21:26;;;;;;;4.35;3.00;;;;;;;22.69;42.74;100085.44;10456971;28;20309;-72
2023/09/26 17:26:27;;;;;;;4.43;2.60;;;;;;;22.99;42.34;100103.13;10452902;28;20235;-72
2023/09/26 17:31:29;;;;;;;6.80;4.78;;;;;;;22.27;43.49;100130.50;10455436;28;20228;-71
2023/09/26 17:36:31;;;;;;;6.68;4.32;;;;;;;22.36;43.63;100091.88;10431916;28;20742;-71
2023/09/26 17:41:34;;;;;;;6.22;4.30;;;;;;;22.81;42.84;100066.16;10447717;28;20232;-72
2023/09/26 17:46:42;;;;;;;5.50;3.83;;;;;;;22.97;42.10;100075.28;10441474;28;20246;-72
2023/09/26 17:51:44;;;;;;;3.72;3.05;;;;;;;21.50;44.63;100156.66;10435269;28;20341;-73
2023/09/26 17:56:46;;;;;;;4.72;2.75;;;;;;;19.86;46.99;100107.34;10454073;28;20257;-71
2023/09/26 18:01:47;;;;;;;3.90;2.97;;;;;;;20.41;46.33;100073.41;10434717;28;20323;-71
2023/09/26 18:06:52;;;;;;;3.85;2.95;;;;;;;20.40;46.66;100075.31;10430316;28;20235;-71
2023/09/26 18:11:59;;;;;;;3.90;2.92;;;;;;;18.90;49.33;100123.75;10456546;28;20227;-73
2023/09/26 18:17:00;;;;;;;3.65;2.42;;;;;;;20.42;46.91;100047.91;10433582;28;20278;-70
2023/09/26 18:22:03;;;;;;;4.15;2.97;;;;;;;19.61;48.41;100134.75;10431651;28;20239;-71
2023/09/26 18:27:09;;;;;;;3.95;3.17;;;;;;;19.82;48.07;100117.84;10447925;28;20288;-73
2023/09/26 18:32:13;;;;;;;3.78;2.90;;;;;;;19.63;48.71;100127.19;10428027;28;20240;-72
2023/09/26 18:37:16;;;;;;;4.95;3.13;;;;;;;19.55;48.77;100098.47;10436939;28;20393;-70
2023/09/26 18:42:19;;;;;;;4.07;3.38;;;;;;;19.29;48.37;100163.00;10430876;28;22764;-70
2023/09/26 18:47:20;;;;;;;4.22;3.35;;;;;;;18.28;50.85;100151.84;10438807;28;20259;-71
2023/09/26 18:52:22;;;;;;;5.20;3.60;;;;;;;17.72;50.79;100119.38;10427509;28;20230;-71
2023/09/26 18:57:25;;;;;;;4.60;3.67;;;;;;;18.31;49.14;100080.19;10439456;28;20236;-70
2023/09/26 19:02:27;;;;;;;6.88;3.50;;;;;;;17.59;50.22;100148.41;10410052;28;20705;-72
2023/09/26 19:07:29;;;;;;;4.63;3.60;;;;;;;17.61;50.60;100141.69;10420919;28;20312;-73
2023/09/26 19:12:34;;;;;;;3.80;3.20;;;;;;;17.90;50.26;100115.03;10434269;28;20327;-74
2023/09/26 19:17:37;;;;;;;4.40;3.47;;;;;;;17.14;51.63;100161.06;10417816;28;20232;-73
2023/09/26 19:22:43;;;;;;;3.75;3.20;;;;;;;17.34;50.86;100139.25;10430130;28;20227;-71
2023/09/26 19:27:46;;;;;;;5.32;3.10;;;;;;;17.22;51.26;100138.31;10451808;28;20342;-73
2023/09/26 19:32:47;;;;;;;4.80;3.60;;;;;;;17.18;51.03;100161.44;10435149;28;20234;-71
2023/09/26 19:37:51;;;;;;;4.10;2.72;;;;;;;17.30;50.75;100143.44;10449014;28;20277;-72
2023/09/26 19:42:52;;;;;;;3.80;3.50;;;;;;;16.96;51.53;100148.28;10436147;28;20236;-74
2023/09/26 19:47:55;;;;;;;3.40;3.10;;;;;;;18.10;49.37;100112.91;10443304;28;20330;-70
2023/09/26 19:52:57;;;;;;;3.47;3.00;;;;;;;20.24;44.65;100199.16;10435272;28;20231;-69
2023/09/26 19:57:59;;;;;;;5.07;3.22;;;;;;;20.54;44.66;100202.78;10445597;28;20698;-70
2023/09/26 20:03:03;;;;;;;2.77;2.57;;;;;;;19.86;45.60;100256.69;10439813;28;20227;-70
2023/09/26 20:08:08;;;;;;;3.67;2.95;;;;;;;19.61;45.50;100278.63;10433040;28;20246;-70
2023/09/26 20:13:10;;;;;;;5.13;2.80;;;;;;;19.26;46.37;100288.25;10443981;28;20852;-70
2023/09/26 20:18:12;;;;;;;7.23;3.13;;;;;;;19.28;46.03;100271.75;10435266;28;20263;-71
2023/09/26 20:23:13;;;;;;;4.50;3.70;;;;;;;19.41;46.06;100249.03;10442096;28;20243;-70
2023/09/26 20:28:16;;;;;;;5.38;3.70;;;;;;;20.00;45.64;100211.94;10440852;28;20251;-70
2023/09/26 20:33:18;;;;;;;4.30;3.90;;;;;;;16.91;50.85;100287.81;10444213;28;20670;-70
2023/09/26 20:38:20;;;;;;;4.68;3.80;;;;;;;18.10;48.55;100252.88;10436718;28;21093;-70
2023/09/26 20:43:22;;;;;;;4.53;4.13;;;;;;;18.21;48.71;100180.91;10438380;28;20240;-70
2023/09/26 20:48:25;;;;;;;5.10;3.80;;;;;;;19.30;47.10;100166.53;10434124;28;20271;-71
2023/09/26 20:53:37;;;;;;;3.93;3.30;;;;;;;20.55;44.46;100191.66;10441106;28;20223;-71
2023/09/26 20:58:39;;;;;;;3.73;3.33;;;;;;;18.48;47.86;100291.72;10433206;28;20672;-70
2023/09/26 21:03:41;;;;;;;4.60;3.67;;;;;;;18.67;47.86;100244.59;10442620;28;20239;-70
2023/09/26 21:08:43;;;;;;;4.43;3.50;;;;;;;19.10;47.63;100166.88;10429262;28;20259;-71
2023/09/26 21:13:45;;;;;;;5.28;3.70;;;;;;;20.43;45.15;100188.13;10437266;28;20293;-71
2023/09/26 21:18:48;;;;;;;4.37;3.60;;;;;;;20.34;45.89;100228.47;10425790;28;20357;-70
2023/09/26 21:23:52;;;;;;;4.63;3.57;;;;;;;18.98;47.37;100303.25;10431041;28;20228;-72
2023/09/26 21:28:54;;;;;;;5.10;3.88;;;;;;;16.99;50.59;100261.38;10423337;28;20322;-70
2023/09/26 21:33:56;;;;;;;4.37;3.90;;;;;;;17.83;50.50;100144.88;10431590;28;20322;-71
2023/09/26 21:38:58;;;;;;;5.73;3.67;;;;;;;18.42;49.66;100182.34;10418929;28;20313;-70
2023/09/26 21:44:00;;;;;;;4.40;3.40;;;;;;;19.81;46.61;100202.28;10425044;28;20282;-71
2023/09/26 21:49:01;;;;;;;4.37;3.30;;;;;;;19.55;46.73;100237.78;10407299;28;20239;-71
2023/09/26 21:54:04;;;;;;;3.87;3.30;;;;;;;18.75;47.31;100316.66;10422810;28;20323;-70
2023/09/26 21:59:06;;;;;;;3.83;3.33;;;;;;;16.80;50.63;100246.88;10409450;28;20379;-70
2023/09/26 22:04:07;;;;;;;3.83;2.87;;;;;;;19.38;46.52;100179.75;10426785;28;20238;-71
2023/09/26 22:09:11;;;;;;;5.43;3.90;;;;;;;16.38;52.24;100283.38;10428756;28;20294;-70
2023/09/26 22:14:14;;;;;;;5.63;3.67;;;;;;;17.36;51.41;100172.31;10423991;28;20224;-70
2023/09/26 22:19:16;;;;;;;5.10;3.27;;;;;;;17.70;50.42;100197.25;10423844;28;20232;-70
2023/09/26 22:24:18;;;;;;;4.20;3.27;;;;;;;17.92;49.12;100194.13;10422885;28;20240;-69
2023/09/26 22:29:22;;;;;;;3.50;2.90;;;;;;;18.33;46.82;100184.53;10423031;28;21013;-71
2023/09/26 22:34:23;;;;;;;3.77;3.40;;;;;;;18.60;46.62;100176.09;10424102;28;20635;-69
2023/09/26 22:39:26;;;;;;;3.57;2.90;;;;;;;18.23;46.61;100214.00;10422908;28;20236;-70
2023/09/26 22:44:30;;;;;;;4.27;3.27;;;;;;;18.39;46.82;100204.47;10423672;28;20704;-70
2023/09/26 22:49:33;;;;;;;4.33;2.87;;;;;;;17.12;48.77;100278.56;10412394;28;20315;-70
2023/09/26 22:54:36;;;;;;;3.80;3.50;;;;;;;15.59;52.66;100215.75;10425358;28;20548;-70
2023/09/26 22:59:39;;;;;;;4.23;3.77;;;;;;;15.87;53.88;100163.41;10421002;28;20359;-71
2023/09/26 23:04:40;;;;;;;5.30;4.67;;;;;;;16.13;54.43;100175.19;10428852;28;20646;-69
2023/09/26 23:09:42;;;;;;;7.73;5.47;;;;;;;16.48;55.22;100091.16;10424181;28;20263;-69
2023/09/26 23:14:44;;;;;;;7.53;5.30;;;;;;;17.30;52.93;100086.66;10425655;28;20251;-70
2023/09/26 23:19:50;;;;;;;6.67;4.90;;;;;;;16.49;53.26;100126.06;10424457;28;20795;-70
2023/09/26 23:25:09;;;;;;;4.83;4.30;;;;;;;18.03;49.46;100133.81;10412059;28;20301;-70
2023/09/26 23:30:12;;;;;;;9.50;5.30;;;;;;;15.07;53.76;100263.97;10425085;28;20246;-70
2023/09/26 23:35:19;;;;;;;5.43;4.57;;;;;;;17.95;48.32;100173.88;10429422;28;20273;-72
2023/09/26 23:40:22;;;;;;;5.63;4.00;;;;;;;17.88;48.42;100204.59;10424809;28;20232;-71
2023/09/26 23:45:24;;;;;;;4.20;3.80;;;;;;;17.32;48.18;100273.88;10426490;28;20241;-69
2023/09/26 23:50:26;;;;;;;4.73;3.90;;;;;;;17.52;48.39;100243.16;10426157;28;20857;-70
2023/09/26 23:55:31;;;;;;;4.17;3.50;;;;;;;16.00;50.58;100260.56;10430326;28;20602;-71
